Rechercher aéroport 
image banner adimage banner adimage banner ad
image banner ad

L62 - Elk Hills-Buttonwillow

Situé à Buttonwillow, United States

ICAO - L62, IATA -

Données fournies par Airmate  

Information générale

Coordonnées: N35°21'12" W119°28'47"
Élévation : 326 feet MSL.
Variation magnétique : 15° East
Voir autres Aéroports à California

Données opérationnelles

Special qualification required
Heure actuelle UTC:
Heure actuelle locale:
Météo à : KBFL - Meadows Field ( 39 km )
METAR: KBFL 020354Z 35012KT 6SM HZ CLR 32/06 A2994 RMK AO2 SLP132 T03170061
TAF: KBFL 012327Z 0200/0224 32012KT P6SM SKC FM020600 36005KT P6SM SKC FM021900 31013KT P6SM SKC
Voir NOTAMs / SUP AIP / TFR affectant cet aéroport [VIEW]
Fréquences de communication: [VIEW]

Pistes:

Identifiant RWYQFULongueur (ft)Largeur (ft)SurfaceLDA (ft)
11326050ASPH
29326050ASPH

Coordonnées de l'aéroport

Adresse: Buttonwillow United States

Vue satellite de L62